createdAt,value
2022-10-06T10:24:18.973Z,70.4
2022-10-06T10:29:46.991Z,70.9
2022-10-06T10:35:34.668Z,71.4
2022-10-06T10:41:11.642Z,71.8
2022-10-06T10:46:55.533Z,72.4
2022-10-06T10:52:17.116Z,71.9
2022-10-06T10:57:56.834Z,71.4
2022-10-06T11:03:35.571Z,72.1
2022-10-06T11:08:58.604Z,72.8
2022-10-06T11:14:42.054Z,73.1
2022-10-06T11:20:06.685Z,73.5
2022-10-06T11:25:30.022Z,73.4
2022-10-06T11:30:55.638Z,73.9
2022-10-06T11:36:19.064Z,74
2022-10-06T11:41:47.410Z,73.8
2022-10-06T11:47:10.606Z,73.9
2022-10-06T11:53:01.980Z,74.2
2022-10-06T11:58:46.154Z,74.3
2022-10-06T12:04:09.586Z,74.4
2022-10-06T12:10:30.436Z,74.4
2022-10-06T12:19:20.564Z,74.1
2022-10-06T12:24:43.356Z,74.4
2022-10-06T12:30:06.903Z,74.2
2022-10-06T12:35:33.252Z,73.7
2022-10-06T12:41:03.690Z,73.2
2022-10-06T12:46:27.381Z,73.1
2022-10-06T12:51:51.425Z,72.6
2022-10-06T12:57:15.696Z,72.2
2022-10-06T13:02:54.750Z,72.1
2022-10-06T13:08:36.432Z,71.8
2022-10-06T13:14:13.684Z,71.1
2022-10-06T13:19:40.204Z,70.5
2022-10-06T13:25:02.361Z,69.9
2022-10-06T13:30:40.783Z,69.5
2022-10-06T13:36:24.311Z,69
2022-10-06T13:42:13.283Z,68.4
2022-10-06T13:47:53.571Z,67.7
2022-10-06T13:53:32.013Z,67.1
2022-10-06T13:59:12.937Z,66.4
2022-10-06T14:04:56.264Z,65.7
2022-10-06T14:10:35.240Z,64.9
2022-10-06T14:16:17.280Z,64.1
2022-10-06T14:21:40.473Z,63.4
2022-10-06T14:27:18.694Z,62.7
2022-10-06T14:32:59.426Z,61.9
2022-10-06T19:53:45.788Z,9
2022-10-06T19:59:09.239Z,8.9
2022-10-06T20:04:46.237Z,8.8
2022-10-06T20:10:23.262Z,8.6
2022-10-06T20:15:50.552Z,8.5
2022-10-06T20:21:12.893Z,8.3
2022-10-06T20:26:35.123Z,8.2
2022-10-06T20:32:14.551Z,8
2022-10-06T20:42:42.070Z,7.8
2022-10-06T20:48:05.363Z,7.6
2022-10-06T20:53:45.621Z,7.4
2022-10-06T20:59:22.618Z,7.3
2022-10-06T21:05:01.636Z,7.2
2022-10-06T21:10:43.203Z,7
2022-10-06T21:16:21.020Z,6.9
2022-10-06T21:21:59.416Z,6.8
2022-10-06T21:27:36.309Z,6.6
2022-10-06T21:33:14.554Z,6.5
2022-10-06T21:38:53.334Z,6.4
2022-10-06T21:44:33.107Z,6.3
2022-10-06T21:50:41.659Z,6.2
2022-10-06T21:56:04.633Z,6.1
2022-10-06T22:01:42.591Z,6
2022-10-06T22:07:20.361Z,5.9
2022-10-06T22:12:58.513Z,5.8
2022-10-06T22:18:36.317Z,5.7
2022-10-06T22:24:15.857Z,5.6
2022-10-06T22:29:39.098Z,5.5
2022-10-06T22:35:20.592Z,5.4
2022-10-06T22:41:02.078Z,5.4
2022-10-06T22:46:24.974Z,5.3
2022-10-06T22:51:47.098Z,5.3
2022-10-06T22:57:08.261Z,5.2
2022-10-06T23:02:31.389Z,5.1
2022-10-06T23:07:37.322Z,5.1
2022-10-06T23:12:49.543Z,5.1
2022-10-06T23:17:56.972Z,5.1
2022-10-06T23:23:02.572Z,5
2022-10-06T23:33:16.189Z,5
2022-10-06T23:38:36.695Z,5
2022-10-06T23:43:57.616Z,5
2022-10-06T23:49:20.138Z,5
2022-10-06T23:54:41.504Z,5
2022-10-06T23:59:48.128Z,5
